createdAt,value
2019-02-23T00:00:13.707Z,10.80
2019-02-23T00:01:13.778Z,10.80
2019-02-23T00:02:13.708Z,10.80
2019-02-23T00:03:13.778Z,10.80
2019-02-23T00:04:13.780Z,10.80
2019-02-23T00:05:13.748Z,10.80
2019-02-23T00:06:13.686Z,10.80
2019-02-23T00:07:13.758Z,10.80
2019-02-23T00:08:13.729Z,10.80
2019-02-23T00:09:13.732Z,10.80
2019-02-23T00:11:13.798Z,10.80
2019-02-23T00:12:13.746Z,10.80
2019-02-23T00:13:13.805Z,10.80
2019-02-23T00:14:13.745Z,10.80
2019-02-23T00:15:13.811Z,10.20
2019-02-23T00:16:13.745Z,10.20
2019-02-23T00:17:13.743Z,10.20
2019-02-23T00:18:13.808Z,10.20
2019-02-23T00:19:24.153Z,10.20
2019-02-23T00:20:13.743Z,10.20
2019-02-23T00:21:13.806Z,10.20
2019-02-23T00:22:13.740Z,10.20
2019-02-23T00:23:13.812Z,10.20
2019-02-23T00:24:13.732Z,10.20
2019-02-23T00:25:13.792Z,11.10
2019-02-23T00:26:13.732Z,11.10
2019-02-23T00:27:13.744Z,11.10
2019-02-23T00:28:13.815Z,11.10
2019-02-23T00:29:13.804Z,11.10
2019-02-23T00:30:13.738Z,11.10
2019-02-23T00:31:13.746Z,11.10
2019-02-23T00:32:13.794Z,11.10
2019-02-23T00:33:13.816Z,11.10
2019-02-23T00:34:13.795Z,11.10
2019-02-23T00:35:13.701Z,14.00
2019-02-23T00:36:13.787Z,14.00
2019-02-23T00:37:13.786Z,14.00
2019-02-23T00:38:13.770Z,14.00
2019-02-23T00:39:13.680Z,14.00
2019-02-23T00:40:13.708Z,14.00
2019-02-23T00:41:13.789Z,14.00
2019-02-23T00:42:13.735Z,14.00
2019-02-23T00:43:13.733Z,14.00
2019-02-23T00:44:13.802Z,14.00
2019-02-23T00:45:13.794Z,12.00
2019-02-23T00:46:13.739Z,12.00
2019-02-23T00:47:13.692Z,12.00
2019-02-23T00:48:13.735Z,12.00
2019-02-23T00:49:13.704Z,12.00
2019-02-23T00:50:13.690Z,12.00
2019-02-23T00:51:13.715Z,12.00
2019-02-23T00:52:13.813Z,12.00
2019-02-23T00:53:13.810Z,12.00
2019-02-23T00:54:13.763Z,12.00
2019-02-23T00:55:13.831Z,10.60
2019-02-23T00:56:13.751Z,10.60
2019-02-23T00:57:13.754Z,10.60
2019-02-23T00:58:13.825Z,10.60
2019-02-23T00:59:13.831Z,10.60
2019-02-23T01:00:13.771Z,10.60
2019-02-23T01:01:13.832Z,10.60
2019-02-23T01:02:13.838Z,10.60
2019-02-23T01:03:13.761Z,10.60
2019-02-23T01:04:13.839Z,10.60
2019-02-23T01:05:13.817Z,12.80
2019-02-23T01:06:13.813Z,12.80
2019-02-23T01:07:13.775Z,12.80
2019-02-23T01:08:13.809Z,12.80
2019-02-23T01:09:13.822Z,12.80
2019-02-23T01:10:13.810Z,12.80
2019-02-23T01:11:13.771Z,12.80
2019-02-23T01:12:13.731Z,12.80
2019-02-23T01:13:13.824Z,12.80
2019-02-23T01:14:13.711Z,12.80
2019-02-23T01:15:13.776Z,11.60
2019-02-23T01:16:13.764Z,11.60
2019-02-23T01:17:13.764Z,11.60
2019-02-23T01:18:13.830Z,11.60
2019-02-23T01:19:13.764Z,11.60
2019-02-23T01:20:13.776Z,11.60
2019-02-23T01:21:13.837Z,11.60
2019-02-23T01:22:13.767Z,11.60
2019-02-23T01:23:13.834Z,11.60
2019-02-23T01:24:13.834Z,11.60
2019-02-23T01:25:13.866Z,18.10
2019-02-23T01:26:13.841Z,18.10
2019-02-23T01:27:13.874Z,18.10
2019-02-23T01:28:13.740Z,18.10
2019-02-23T01:29:13.852Z,18.10
2019-02-23T01:30:13.805Z,18.10
2019-02-23T01:31:13.739Z,18.10
2019-02-23T01:32:13.820Z,18.10
2019-02-23T01:33:13.799Z,18.10
2019-02-23T01:34:13.752Z,18.10
2019-02-23T01:35:13.839Z,13.10
2019-02-23T01:36:13.790Z,13.10
2019-02-23T01:37:13.844Z,13.10
2019-02-23T01:38:13.749Z,13.10
2019-02-23T01:39:13.750Z,13.10
2019-02-23T01:40:13.863Z,13.10
2019-02-23T01:41:13.836Z,13.10
2019-02-23T01:42:13.773Z,13.10
2019-02-23T01:43:13.779Z,13.10
2019-02-23T01:44:13.848Z,13.10
2019-02-23T01:45:13.805Z,11.50
2019-02-23T01:46:13.794Z,11.50
2019-02-23T01:47:13.803Z,11.50
2019-02-23T01:48:13.810Z,11.50
2019-02-23T01:49:13.803Z,11.50
2019-02-23T01:50:13.868Z,11.50
2019-02-23T01:51:13.804Z,11.50
2019-02-23T01:52:13.807Z,11.50
2019-02-23T01:53:13.812Z,11.50
2019-02-23T01:54:13.867Z,11.50
2019-02-23T01:55:13.886Z,16.70
2019-02-23T01:56:13.797Z,16.70
2019-02-23T01:57:13.758Z,16.70
2019-02-23T01:58:13.787Z,16.70
2019-02-23T01:59:13.721Z,16.70
2019-02-23T02:00:13.820Z,16.70
2019-02-23T02:01:13.785Z,16.70
2019-02-23T02:02:13.767Z,16.70
2019-02-23T02:03:13.732Z,16.70
2019-02-23T02:04:13.729Z,16.70
2019-02-23T02:05:13.882Z,16.30
2019-02-23T02:06:13.826Z,16.30
2019-02-23T02:07:13.821Z,16.30
2019-02-23T02:08:13.892Z,16.30
2019-02-23T02:09:13.871Z,16.30
2019-02-23T02:10:13.889Z,16.30
2019-02-23T02:11:13.887Z,16.30
2019-02-23T02:12:13.865Z,16.30
2019-02-23T02:13:13.869Z,16.30
2019-02-23T02:14:13.906Z,16.30
2019-02-23T02:15:13.775Z,18.30
2019-02-23T02:16:13.773Z,18.30
2019-02-23T02:17:13.810Z,18.30
2019-02-23T02:18:13.862Z,18.30
2019-02-23T02:19:13.863Z,18.30
2019-02-23T02:20:13.827Z,18.30
2019-02-23T02:21:13.778Z,18.30
2019-02-23T02:22:13.786Z,18.30
2019-02-23T02:23:13.778Z,18.30
2019-02-23T02:24:13.811Z,18.30
2019-02-23T02:25:13.913Z,17.30
2019-02-23T02:26:13.901Z,17.30
2019-02-23T02:27:13.905Z,17.30
2019-02-23T02:28:13.910Z,17.30
2019-02-23T02:29:13.838Z,17.30
2019-02-23T02:30:13.855Z,17.30
2019-02-23T02:31:13.862Z,17.30
2019-02-23T02:32:13.903Z,17.30
2019-02-23T02:33:13.910Z,17.30
2019-02-23T02:34:13.933Z,17.30
2019-02-23T02:35:13.902Z,17.30
2019-02-23T02:36:13.812Z,18.30
2019-02-23T02:37:13.874Z,18.30
2019-02-23T02:38:13.757Z,18.30
2019-02-23T02:39:13.868Z,18.30
2019-02-23T02:40:13.763Z,18.30
2019-02-23T02:41:13.744Z,18.30
2019-02-23T02:42:13.841Z,18.30
2019-02-23T02:43:13.867Z,18.30
2019-02-23T02:44:13.875Z,18.30
2019-02-23T02:45:13.836Z,18.30
2019-02-23T02:46:13.895Z,17.70
2019-02-23T02:47:13.823Z,17.70
2019-02-23T02:48:13.894Z,17.70
2019-02-23T02:49:13.859Z,17.70
2019-02-23T02:50:24.003Z,17.70
2019-02-23T02:51:13.834Z,17.70
2019-02-23T02:52:13.900Z,17.70
2019-02-23T02:53:13.836Z,17.70
2019-02-23T02:54:13.901Z,17.70
2019-02-23T02:55:13.841Z,17.70
2019-02-23T02:56:13.838Z,15.90
2019-02-23T02:57:13.783Z,15.90
2019-02-23T02:58:13.833Z,15.90
2019-02-23T02:59:13.903Z,15.90
2019-02-23T03:00:13.841Z,15.90
2019-02-23T03:01:13.915Z,15.90
2019-02-23T03:02:13.974Z,15.90
2019-02-23T03:03:13.840Z,15.90
2019-02-23T03:04:13.908Z,15.90
2019-02-23T03:05:13.854Z,15.90
2019-02-23T03:06:13.844Z,15.80
2019-02-23T03:07:13.909Z,15.80
2019-02-23T03:08:13.848Z,15.80
2019-02-23T03:09:13.915Z,15.80
2019-02-23T03:10:13.855Z,15.80
2019-02-23T03:11:13.909Z,15.80
2019-02-23T03:12:13.913Z,15.80
2019-02-23T03:13:13.930Z,15.80
2019-02-23T03:14:13.846Z,15.80
2019-02-23T03:15:13.915Z,15.80
2019-02-23T03:16:13.913Z,16.60
2019-02-23T03:17:13.914Z,16.60
2019-02-23T03:18:13.931Z,16.60
2019-02-23T03:19:13.848Z,16.60
2019-02-23T03:20:13.854Z,16.60
2019-02-23T03:21:13.919Z,16.60
2019-02-23T03:22:13.850Z,16.60
2019-02-23T03:23:13.854Z,16.60
2019-02-23T03:24:13.855Z,16.60
2019-02-23T03:25:13.865Z,16.60
2019-02-23T03:26:13.952Z,17.40
2019-02-23T03:27:13.891Z,17.40
2019-02-23T03:28:13.886Z,17.40
2019-02-23T03:29:13.904Z,17.40
2019-02-23T03:30:13.970Z,17.40
2019-02-23T03:31:13.858Z,17.40
2019-02-23T03:32:13.883Z,17.40
2019-02-23T03:33:13.968Z,17.40
2019-02-23T03:34:14.162Z,17.40
2019-02-23T03:35:13.891Z,17.40
2019-02-23T03:36:13.831Z,14.50
2019-02-23T03:37:13.961Z,14.50
2019-02-23T03:38:13.828Z,14.50
2019-02-23T03:39:13.910Z,14.50
2019-02-23T03:40:13.961Z,14.50
2019-02-23T03:41:13.966Z,14.50
2019-02-23T03:42:13.900Z,14.50
2019-02-23T03:43:13.934Z,14.50
2019-02-23T03:44:13.961Z,14.50
2019-02-23T03:45:13.872Z,14.50
2019-02-23T03:46:13.879Z,14.20
2019-02-23T03:47:13.942Z,14.20
2019-02-23T03:48:13.870Z,14.20
2019-02-23T03:49:13.873Z,14.20
2019-02-23T03:50:13.939Z,14.20
2019-02-23T03:51:13.948Z,14.20
2019-02-23T03:52:13.879Z,14.20
2019-02-23T03:53:13.875Z,14.20
2019-02-23T03:54:13.944Z,14.20
2019-02-23T03:55:13.882Z,14.20
2019-02-23T03:56:13.896Z,20.10
2019-02-23T03:57:13.881Z,20.10
2019-02-23T03:58:13.953Z,20.10
2019-02-23T03:59:13.947Z,20.10
2019-02-23T04:00:13.956Z,20.10
2019-02-23T04:01:13.946Z,20.10
2019-02-23T04:02:13.950Z,20.10
2019-02-23T04:03:13.948Z,20.10
2019-02-23T04:04:13.962Z,20.10
2019-02-23T04:05:13.884Z,20.10
2019-02-23T04:06:13.988Z,20.70
2019-02-23T04:07:13.977Z,20.70
2019-02-23T04:08:13.916Z,20.70
2019-02-23T04:09:13.922Z,20.70
2019-02-23T04:10:13.863Z,20.70
2019-02-23T04:11:13.934Z,20.70
2019-02-23T04:12:13.929Z,20.70
2019-02-23T04:13:13.891Z,20.70
2019-02-23T04:14:13.926Z,20.70
2019-02-23T04:15:13.959Z,20.70
2019-02-23T04:16:13.926Z,18.80
2019-02-23T04:17:13.988Z,18.80
2019-02-23T04:18:13.903Z,18.80
2019-02-23T04:19:13.859Z,18.80
2019-02-23T04:20:13.938Z,18.80
2019-02-23T04:21:13.962Z,18.80
2019-02-23T04:22:13.914Z,18.80
2019-02-23T04:23:13.881Z,18.80
2019-02-23T04:24:13.864Z,18.80
2019-02-23T04:25:13.904Z,18.80
2019-02-23T04:26:13.930Z,18.30
2019-02-23T04:27:13.932Z,18.30
2019-02-23T04:28:13.944Z,18.30
2019-02-23T04:29:13.898Z,18.30
2019-02-23T04:30:13.865Z,18.30
2019-02-23T04:31:13.838Z,18.30
2019-02-23T04:32:13.948Z,18.30
2019-02-23T04:33:13.923Z,18.30
2019-02-23T04:34:13.895Z,18.30
2019-02-23T04:35:13.904Z,18.30
2019-02-23T04:36:13.974Z,18.20
2019-02-23T04:38:13.912Z,18.20
2019-02-23T04:39:13.913Z,18.20
2019-02-23T04:40:13.993Z,18.20
2019-02-23T04:41:13.975Z,18.20
2019-02-23T04:42:13.984Z,18.20
2019-02-23T04:43:13.976Z,18.20
2019-02-23T04:44:13.915Z,18.20
2019-02-23T04:45:13.980Z,18.20
2019-02-23T04:46:13.952Z,17.70
2019-02-23T04:47:14.009Z,17.70
2019-02-23T04:48:13.904Z,17.70
2019-02-23T04:49:13.918Z,17.70
2019-02-23T04:50:13.964Z,17.70
2019-02-23T04:51:14.860Z,17.70
2019-02-23T04:52:13.962Z,17.70
2019-02-23T04:53:13.916Z,17.70
2019-02-23T04:54:14.010Z,17.70
2019-02-23T04:55:13.998Z,17.70
2019-02-23T04:56:14.049Z,23.99
2019-02-23T04:57:14.020Z,23.99
2019-02-23T04:58:13.956Z,23.99
2019-02-23T04:59:14.037Z,23.99
2019-02-23T05:00:14.004Z,23.99
2019-02-23T05:01:13.950Z,23.99
2019-02-23T05:02:14.008Z,23.99
2019-02-23T05:03:13.949Z,23.99
2019-02-23T05:04:13.895Z,23.99
2019-02-23T05:05:13.960Z,23.99
2019-02-23T05:06:13.953Z,19.00
2019-02-23T05:07:13.955Z,19.00
2019-02-23T05:08:13.972Z,19.00
2019-02-23T05:09:13.853Z,19.00
2019-02-23T05:10:13.985Z,19.00
2019-02-23T05:11:13.977Z,19.00
2019-02-23T05:12:13.862Z,19.00
2019-02-23T05:13:13.983Z,19.00
2019-02-23T05:14:13.900Z,19.00
2019-02-23T05:15:13.997Z,19.00
2019-02-23T05:16:14.016Z,23.70
2019-02-23T05:17:13.963Z,23.70
2019-02-23T05:18:14.037Z,23.70
2019-02-23T05:19:13.982Z,23.70
2019-02-23T05:20:14.002Z,23.70
2019-02-23T05:21:25.724Z,23.70
2019-02-23T05:22:13.993Z,23.70
2019-02-23T05:23:14.028Z,23.70
2019-02-23T05:24:14.004Z,23.70
2019-02-23T05:25:13.950Z,23.70
2019-02-23T05:26:13.910Z,22.20
2019-02-23T05:27:13.916Z,22.20
2019-02-23T05:28:13.957Z,22.20
2019-02-23T05:29:13.996Z,22.20
2019-02-23T05:30:13.958Z,22.20
2019-02-23T05:31:13.973Z,22.20
2019-02-23T05:32:14.018Z,22.20
2019-02-23T05:33:13.939Z,22.20
2019-02-23T05:34:13.943Z,22.20
2019-02-23T05:35:14.010Z,22.20
2019-02-23T05:36:13.944Z,21.00
2019-02-23T05:37:14.024Z,21.00
2019-02-23T05:38:14.020Z,21.00
2019-02-23T05:39:14.012Z,21.00
2019-02-23T05:40:13.916Z,21.00
2019-02-23T05:41:14.015Z,21.00
2019-02-23T05:42:14.011Z,21.00
2019-02-23T05:43:14.029Z,21.00
2019-02-23T05:44:13.948Z,21.00
2019-02-23T05:45:14.030Z,21.00
2019-02-23T05:46:14.049Z,18.50
2019-02-23T05:47:14.099Z,18.50
2019-02-23T05:48:13.996Z,18.50
2019-02-23T05:49:13.985Z,18.50
2019-02-23T05:50:14.035Z,18.50
2019-02-23T05:51:14.025Z,18.50
2019-02-23T05:52:14.002Z,18.50
2019-02-23T05:53:14.037Z,18.50
2019-02-23T05:54:13.999Z,18.50
2019-02-23T05:55:14.007Z,18.50
2019-02-23T05:56:16.339Z,23.60
2019-02-23T05:57:13.964Z,23.60
2019-02-23T05:58:14.029Z,23.60
2019-02-23T05:59:14.057Z,23.60
2019-02-23T06:00:13.962Z,23.60
2019-02-23T06:01:14.034Z,23.60
2019-02-23T06:02:13.970Z,23.60
2019-02-23T06:03:13.994Z,23.60
2019-02-23T06:04:13.970Z,23.60
2019-02-23T06:05:14.040Z,23.60
2019-02-23T06:06:14.069Z,18.70
2019-02-23T06:07:14.038Z,18.70
2019-02-23T06:08:14.069Z,18.70
2019-02-23T06:09:14.006Z,18.70
2019-02-23T06:10:14.077Z,18.70
2019-02-23T06:11:14.015Z,18.70
2019-02-23T06:12:14.040Z,18.70
2019-02-23T06:13:14.019Z,18.70
2019-02-23T06:14:14.021Z,18.70
2019-02-23T06:15:14.041Z,18.70
2019-02-23T06:16:14.016Z,17.90
2019-02-23T06:17:14.059Z,17.90
2019-02-23T06:18:14.068Z,17.90
2019-02-23T06:19:13.941Z,17.90
2019-02-23T06:20:13.991Z,17.90
2019-02-23T06:21:14.012Z,17.90
2019-02-23T06:22:14.045Z,17.90
2019-02-23T06:23:14.045Z,17.90
2019-02-23T06:24:14.112Z,17.90
2019-02-23T06:25:14.055Z,17.90
2019-02-23T06:26:14.073Z,23.20
2019-02-23T06:27:14.064Z,23.20
2019-02-23T06:28:14.075Z,23.20
2019-02-23T06:29:14.010Z,23.20
2019-02-23T06:30:13.957Z,23.20
2019-02-23T06:31:13.951Z,23.20
2019-02-23T06:32:14.091Z,23.20
2019-02-23T06:33:14.075Z,23.20
2019-02-23T06:34:16.434Z,23.20
2019-02-23T06:35:14.017Z,23.20
2019-02-23T06:36:14.005Z,21.00
2019-02-23T06:37:13.963Z,21.00
2019-02-23T06:38:13.966Z,21.00
2019-02-23T06:39:14.050Z,21.00
2019-02-23T06:40:13.958Z,21.00
2019-02-23T06:41:14.055Z,21.00
2019-02-23T06:42:14.019Z,21.00
2019-02-23T06:43:13.961Z,21.00
2019-02-23T06:44:14.048Z,21.00
2019-02-23T06:45:13.988Z,21.00
2019-02-23T06:46:13.990Z,19.90
2019-02-23T06:47:14.076Z,19.90
2019-02-23T06:48:14.000Z,19.90
2019-02-23T06:49:14.064Z,19.90
2019-02-23T06:50:13.997Z,19.90
2019-02-23T06:51:14.003Z,19.90
2019-02-23T06:52:14.076Z,19.90
2019-02-23T06:53:13.998Z,19.90
2019-02-23T06:54:14.072Z,19.90
2019-02-23T06:55:14.017Z,19.90
2019-02-23T06:56:14.068Z,18.60
2019-02-23T06:57:14.035Z,18.60
2019-02-23T06:58:13.966Z,18.60
2019-02-23T06:59:14.056Z,18.60
2019-02-23T07:00:13.951Z,18.60
2019-02-23T07:01:14.036Z,18.60
2019-02-23T07:02:14.019Z,18.60
2019-02-23T07:03:14.036Z,18.60
2019-02-23T07:04:13.977Z,18.60
2019-02-23T07:05:14.062Z,18.60
2019-02-23T07:06:14.087Z,20.20
2019-02-23T07:07:14.019Z,20.20
2019-02-23T07:08:14.103Z,20.20
2019-02-23T07:09:14.090Z,20.20
2019-02-23T07:10:14.058Z,20.20
2019-02-23T07:11:14.088Z,20.20
2019-02-23T07:12:14.050Z,20.20
2019-02-23T07:13:14.024Z,20.20
2019-02-23T07:14:14.092Z,20.20
2019-02-23T07:15:14.034Z,20.20
2019-02-23T07:16:13.986Z,22.80
2019-02-23T07:17:14.103Z,22.80
2019-02-23T07:18:14.038Z,22.80
2019-02-23T07:19:14.086Z,22.80
2019-02-23T07:20:14.125Z,22.80
2019-02-23T07:21:14.063Z,22.80
2019-02-23T07:22:15.836Z,22.80
2019-02-23T07:23:13.991Z,22.80
2019-02-23T07:24:14.117Z,22.80
2019-02-23T07:25:14.084Z,22.80
2019-02-23T07:26:14.124Z,22.80
2019-02-23T07:27:14.101Z,25.30
2019-02-23T07:28:14.119Z,25.30
2019-02-23T07:29:14.071Z,25.30
2019-02-23T07:30:14.047Z,25.30
2019-02-23T07:31:14.045Z,25.30
2019-02-23T07:32:14.061Z,25.30
2019-02-23T07:33:14.047Z,25.30
2019-02-23T07:34:14.035Z,25.30
2019-02-23T07:35:14.062Z,25.30
2019-02-23T07:36:14.110Z,25.30
2019-02-23T07:37:14.129Z,21.30
2019-02-23T07:38:14.119Z,21.30
2019-02-23T07:39:14.039Z,21.30
2019-02-23T07:40:14.056Z,21.30
2019-02-23T07:41:14.115Z,21.30
2019-02-23T07:42:14.120Z,21.30
2019-02-23T07:43:14.118Z,21.30
2019-02-23T07:44:14.045Z,21.30
2019-02-23T07:45:14.041Z,21.30
2019-02-23T07:46:14.045Z,21.30
2019-02-23T07:47:14.063Z,19.20
2019-02-23T07:48:14.005Z,19.20
2019-02-23T07:49:14.052Z,19.20
2019-02-23T07:50:14.071Z,19.20
2019-02-23T07:51:14.051Z,19.20
2019-02-23T07:52:14.037Z,19.20
2019-02-23T07:53:14.068Z,19.20
2019-02-23T07:54:14.045Z,19.20
2019-02-23T07:55:14.001Z,19.20
2019-02-23T07:56:14.062Z,19.20
2019-02-23T07:57:14.044Z,22.60
2019-02-23T07:58:14.037Z,22.60
2019-02-23T07:59:14.042Z,22.60
2019-02-23T08:00:14.039Z,22.60
2019-02-23T08:01:14.209Z,22.60
2019-02-23T08:02:14.113Z,22.60
2019-02-23T08:03:14.039Z,22.60
2019-02-23T08:04:14.061Z,22.60
2019-02-23T08:05:14.135Z,22.60
2019-02-23T08:06:14.061Z,22.60
2019-02-23T08:07:14.119Z,22.70
2019-02-23T08:08:14.120Z,22.70
2019-02-23T08:09:14.045Z,22.70
2019-02-23T08:10:14.121Z,22.70
2019-02-23T08:11:14.059Z,22.70
2019-02-23T08:12:14.121Z,22.70
2019-02-23T08:13:14.048Z,22.70
2019-02-23T08:14:14.124Z,22.70
2019-02-23T08:15:14.048Z,22.70
2019-02-23T08:16:14.130Z,22.70
2019-02-23T08:17:14.051Z,23.50
2019-02-23T08:18:14.056Z,23.50
2019-02-23T08:19:14.034Z,23.50
2019-02-23T08:20:14.140Z,23.50
2019-02-23T08:21:14.059Z,23.50
2019-02-23T08:22:14.150Z,23.50
2019-02-23T08:23:14.131Z,23.50
2019-02-23T08:24:14.066Z,23.50
2019-02-23T08:25:14.132Z,23.50
2019-02-23T08:26:14.127Z,23.50
2019-02-23T08:27:14.131Z,22.30
2019-02-23T08:28:14.057Z,22.30
2019-02-23T08:29:14.076Z,22.30
2019-02-23T08:30:14.136Z,22.30
2019-02-23T08:31:14.063Z,22.30
2019-02-23T08:32:14.141Z,22.30
2019-02-23T08:33:14.072Z,22.30
2019-02-23T08:34:14.138Z,22.30
2019-02-23T08:35:14.074Z,22.30
2019-02-23T08:36:14.065Z,22.30
2019-02-23T08:37:14.159Z,23.20
2019-02-23T08:38:14.078Z,23.20
2019-02-23T08:39:14.089Z,23.20
2019-02-23T08:40:14.157Z,23.20
2019-02-23T08:41:14.110Z,23.20
2019-02-23T08:42:14.162Z,23.20
2019-02-23T08:43:14.133Z,23.20
2019-02-23T08:44:14.210Z,23.20
2019-02-23T08:45:14.156Z,23.20
2019-02-23T08:46:14.116Z,23.20
2019-02-23T08:47:14.091Z,26.80
2019-02-23T08:48:14.146Z,26.80
2019-02-23T08:49:14.155Z,26.80
2019-02-23T08:50:14.078Z,26.80
2019-02-23T08:51:14.151Z,26.80
2019-02-23T08:52:14.091Z,26.80
2019-02-23T08:53:14.086Z,26.80
2019-02-23T08:54:14.154Z,26.80
2019-02-23T08:55:14.089Z,26.80
2019-02-23T08:56:14.159Z,26.80
2019-02-23T08:57:14.172Z,22.50
2019-02-23T08:58:14.175Z,22.50
2019-02-23T08:59:14.156Z,22.50
2019-02-23T09:00:14.169Z,22.50
2019-02-23T09:01:14.158Z,22.50
2019-02-23T09:02:14.092Z,22.50
2019-02-23T09:03:14.058Z,22.50
2019-02-23T09:04:14.178Z,22.50
2019-02-23T09:05:14.103Z,22.50
2019-02-23T09:06:14.167Z,22.50
2019-02-23T09:07:14.051Z,25.00
2019-02-23T09:08:14.120Z,25.00
2019-02-23T09:09:14.058Z,25.00
2019-02-23T09:10:14.125Z,25.00
2019-02-23T09:11:14.030Z,25.00
2019-02-23T09:12:14.128Z,25.00
2019-02-23T09:13:14.139Z,25.00
2019-02-23T09:14:14.131Z,25.00
2019-02-23T09:15:14.094Z,25.00
2019-02-23T09:16:14.056Z,25.00
2019-02-23T09:17:14.126Z,22.50
2019-02-23T09:18:14.108Z,22.50
2019-02-23T09:19:14.123Z,22.50
2019-02-23T09:20:14.110Z,22.50
2019-02-23T09:21:14.106Z,22.50
2019-02-23T09:22:14.114Z,22.50
2019-02-23T09:23:14.111Z,22.50
2019-02-23T09:24:14.110Z,22.50
2019-02-23T09:25:14.141Z,22.50
2019-02-23T09:26:14.125Z,22.50
2019-02-23T09:27:14.115Z,21.20
2019-02-23T09:28:14.236Z,21.20
2019-02-23T09:29:14.152Z,21.20
2019-02-23T09:30:14.193Z,21.20
2019-02-23T09:31:14.117Z,21.20
2019-02-23T09:32:14.187Z,21.20
2019-02-23T09:33:14.187Z,21.20
2019-02-23T09:34:14.133Z,21.20
2019-02-23T09:35:14.193Z,21.20
2019-02-23T09:36:14.122Z,21.20
2019-02-23T09:37:14.192Z,22.30
2019-02-23T09:38:14.177Z,22.30
2019-02-23T09:39:14.197Z,22.30
2019-02-23T09:40:14.142Z,22.30
2019-02-23T09:41:14.198Z,22.30
2019-02-23T09:42:14.131Z,22.30
2019-02-23T09:43:14.128Z,22.30
2019-02-23T09:44:14.143Z,22.30
2019-02-23T09:45:14.199Z,22.30
2019-02-23T09:46:14.202Z,22.30
2019-02-23T09:47:14.122Z,21.00
2019-02-23T09:48:14.114Z,21.00
2019-02-23T09:49:14.084Z,21.00
2019-02-23T09:50:14.138Z,21.00
2019-02-23T09:51:14.167Z,21.00
2019-02-23T09:52:14.140Z,21.00
2019-02-23T09:53:14.066Z,21.00
2019-02-23T09:54:14.106Z,21.00
2019-02-23T09:55:14.177Z,21.00
2019-02-23T09:56:14.065Z,21.00
2019-02-23T09:57:14.204Z,24.30
2019-02-23T09:58:14.160Z,24.30
2019-02-23T09:59:14.135Z,24.30
2019-02-23T10:00:14.157Z,24.30
2019-02-23T10:01:14.137Z,24.30
2019-02-23T10:02:14.137Z,24.30
2019-02-23T10:03:14.220Z,24.30
2019-02-23T10:04:14.174Z,24.30
2019-02-23T10:05:14.221Z,24.30
2019-02-23T10:06:14.211Z,24.30
2019-02-23T10:07:14.129Z,20.90
2019-02-23T10:08:14.143Z,20.90
2019-02-23T10:09:14.069Z,20.90
2019-02-23T10:10:14.228Z,20.90
2019-02-23T10:11:14.187Z,20.90
2019-02-23T10:12:14.076Z,20.90
2019-02-23T10:13:14.215Z,20.90
2019-02-23T10:14:14.138Z,20.90
2019-02-23T10:15:14.186Z,20.90
2019-02-23T10:16:14.169Z,20.90
2019-02-23T10:17:14.197Z,19.00
2019-02-23T10:18:14.167Z,19.00
2019-02-23T10:19:14.176Z,19.00
2019-02-23T10:20:14.193Z,19.00
2019-02-23T10:21:14.120Z,19.00
2019-02-23T10:22:14.142Z,19.00
2019-02-23T10:23:21.594Z,19.00
2019-02-23T10:24:14.211Z,19.00
2019-02-23T10:25:14.094Z,19.00
2019-02-23T10:26:14.101Z,19.00
2019-02-23T10:27:14.230Z,20.50
2019-02-23T10:28:14.168Z,20.50
2019-02-23T10:29:14.175Z,20.50
2019-02-23T10:30:14.157Z,20.50
2019-02-23T10:31:14.221Z,20.50
2019-02-23T10:32:14.228Z,20.50
2019-02-23T10:33:14.229Z,20.50
2019-02-23T10:34:14.165Z,20.50
2019-02-23T10:35:14.235Z,20.50
2019-02-23T10:36:14.242Z,20.50
2019-02-23T10:37:14.157Z,20.40
2019-02-23T10:38:14.146Z,20.40
2019-02-23T10:39:14.162Z,20.40
2019-02-23T10:40:14.152Z,20.40
2019-02-23T10:41:14.229Z,20.40
2019-02-23T10:42:14.151Z,20.40
2019-02-23T10:43:14.157Z,20.40
2019-02-23T10:44:14.234Z,20.40
2019-02-23T10:45:14.157Z,20.40
2019-02-23T10:46:14.234Z,20.40
2019-02-23T10:47:14.168Z,18.60
2019-02-23T10:48:14.240Z,18.60
2019-02-23T10:49:14.186Z,18.60
2019-02-23T10:50:14.239Z,18.60
2019-02-23T10:51:14.245Z,18.60
2019-02-23T10:52:14.179Z,18.60
2019-02-23T10:53:14.245Z,18.60
2019-02-23T10:54:14.250Z,18.60
2019-02-23T10:55:14.248Z,18.60
2019-02-23T10:56:14.141Z,18.60
2019-02-23T10:57:14.257Z,19.80
2019-02-23T10:58:14.253Z,19.80
2019-02-23T10:59:14.239Z,19.80
2019-02-23T11:00:14.258Z,19.80
2019-02-23T11:01:14.255Z,19.80
2019-02-23T11:02:14.228Z,19.80
2019-02-23T11:03:14.183Z,19.80
2019-02-23T11:04:14.142Z,19.80
2019-02-23T11:05:14.253Z,19.80
2019-02-23T11:06:14.260Z,19.80
2019-02-23T11:07:14.324Z,18.50
2019-02-23T11:08:14.255Z,18.50
2019-02-23T11:09:14.261Z,18.50
2019-02-23T11:10:14.268Z,18.50
2019-02-23T11:11:14.260Z,18.50
2019-02-23T11:12:14.274Z,18.50
2019-02-23T11:13:14.193Z,18.50
2019-02-23T11:14:14.263Z,18.50
2019-02-23T11:15:14.268Z,18.50
2019-02-23T11:16:14.193Z,18.50
2019-02-23T11:17:14.265Z,17.80
2019-02-23T11:18:14.263Z,17.80
2019-02-23T11:19:14.262Z,17.80
2019-02-23T11:20:14.218Z,17.80
2019-02-23T11:21:14.193Z,17.80
2019-02-23T11:22:14.208Z,17.80
2019-02-23T11:23:14.276Z,17.80
2019-02-23T11:24:14.223Z,17.80
2019-02-23T11:25:14.208Z,17.80
2019-02-23T11:26:14.220Z,17.80
2019-02-23T11:27:14.267Z,20.90
2019-02-23T11:28:14.279Z,20.90
2019-02-23T11:29:14.294Z,20.90
2019-02-23T11:30:14.207Z,20.90
2019-02-23T11:31:14.206Z,20.90
2019-02-23T11:32:14.288Z,20.90
2019-02-23T11:33:14.220Z,20.90
2019-02-23T11:34:14.203Z,20.90
2019-02-23T11:35:14.215Z,20.90
2019-02-23T11:36:14.206Z,20.90
2019-02-23T11:37:14.193Z,16.70
2019-02-23T11:38:14.229Z,16.70
2019-02-23T11:39:14.195Z,16.70
2019-02-23T11:40:14.193Z,16.70
2019-02-23T11:41:14.197Z,16.70
2019-02-23T11:42:14.426Z,16.70
2019-02-23T11:43:14.271Z,16.70
2019-02-23T11:44:14.199Z,16.70
2019-02-23T11:45:14.199Z,16.70
2019-02-23T11:46:14.165Z,16.70
2019-02-23T11:47:14.300Z,18.10
2019-02-23T11:48:14.223Z,18.10
2019-02-23T11:49:14.231Z,18.10
2019-02-23T11:50:14.221Z,18.10
2019-02-23T11:51:14.237Z,18.10
2019-02-23T11:52:14.289Z,18.10
2019-02-23T11:53:14.289Z,18.10
2019-02-23T11:54:14.181Z,18.10
2019-02-23T11:55:14.219Z,18.10
2019-02-23T11:56:14.238Z,18.10
2019-02-23T11:57:14.218Z,18.80
2019-02-23T11:58:14.293Z,18.80
2019-02-23T11:59:14.259Z,18.80
2019-02-23T12:00:14.302Z,18.80
2019-02-23T12:01:14.292Z,18.80
2019-02-23T12:02:14.298Z,18.80
2019-02-23T12:03:14.282Z,18.80
2019-02-23T12:04:14.228Z,18.80
2019-02-23T12:05:14.258Z,18.80
2019-02-23T12:06:14.300Z,18.80
2019-02-23T12:07:14.166Z,18.10
2019-02-23T12:08:14.287Z,18.10
2019-02-23T12:09:14.289Z,18.10
2019-02-23T12:10:14.168Z,18.10
2019-02-23T12:11:14.242Z,18.10
2019-02-23T12:12:14.277Z,18.10
2019-02-23T12:13:14.290Z,18.10
2019-02-23T12:14:14.293Z,18.10
2019-02-23T12:15:14.194Z,18.10
2019-02-23T12:16:14.296Z,18.10
2019-02-23T12:17:14.225Z,18.50
2019-02-23T12:18:14.195Z,18.50
2019-02-23T12:19:14.263Z,18.50
2019-02-23T12:20:14.222Z,18.50
2019-02-23T12:21:14.185Z,18.50
2019-02-23T12:22:14.168Z,18.50
2019-02-23T12:23:14.230Z,18.50
2019-02-23T12:24:14.283Z,18.50
2019-02-23T12:25:16.233Z,18.50
2019-02-23T12:26:14.237Z,18.50
2019-02-23T12:27:14.240Z,17.70
2019-02-23T12:28:14.313Z,17.70
2019-02-23T12:29:14.316Z,17.70
2019-02-23T12:30:14.318Z,17.70
2019-02-23T12:31:14.317Z,17.70
2019-02-23T12:32:14.206Z,17.70
2019-02-23T12:33:14.247Z,17.70
2019-02-23T12:34:14.260Z,17.70
2019-02-23T12:35:14.271Z,17.70
2019-02-23T12:36:14.261Z,17.70
2019-02-23T12:37:14.249Z,16.90
2019-02-23T12:38:14.247Z,16.90
2019-02-23T12:39:14.319Z,16.90
2019-02-23T12:40:14.320Z,16.90
2019-02-23T12:41:14.324Z,16.90
2019-02-23T12:42:14.336Z,16.90
2019-02-23T12:43:14.327Z,16.90
2019-02-23T12:44:14.261Z,16.90
2019-02-23T12:45:14.326Z,16.90
2019-02-23T12:46:14.325Z,16.90
2019-02-23T12:47:14.196Z,15.00
2019-02-23T12:48:14.318Z,15.00
2019-02-23T12:49:14.244Z,15.00
2019-02-23T12:50:14.323Z,15.00
2019-02-23T12:51:14.242Z,15.00
2019-02-23T12:52:14.243Z,15.00
2019-02-23T12:53:14.321Z,15.00
2019-02-23T12:54:16.857Z,15.00